Time;durP1;ratioP1;P1;durP2;ratioP2;P2;SDS_P1;SDS_P2;PMS_P1;PMS_P2;Temp;Humidity;BMP_temperature;BMP_pressure;BME280_temperature;BME280_humidity;BME280_pressure;Samples;Min_cycle;Max_cycle;Signal;HPM_P1;HPM_P2
2023/04/26 00:00:07;;;;;;;9.32;1.60;;;;;;;10.32;45.53;101015.69;4969581;28;97316;-69
2023/04/26 00:02:35;;;;;;;9.80;1.15;;;;;;;10.24;46.05;101016.84;4964726;28;96961;-70
2023/04/26 00:05:02;;;;;;;13.10;2.33;;;;;;;9.94;46.20;101019.41;4960803;28;101774;-70
2023/04/26 00:07:29;;;;;;;9.02;1.67;;;;;;;9.79;46.85;101017.19;4963269;28;101992;-69
2023/04/26 00:09:56;;;;;;;6.50;1.25;;;;;;;9.65;47.34;101015.88;4968848;28;96936;-70
2023/04/26 00:12:22;;;;;;;9.73;1.50;;;;;;;9.67;47.35;101011.41;4969296;28;97738;-69
2023/04/26 00:14:49;;;;;;;6.95;1.08;;;;;;;9.55;47.67;101012.59;4965847;28;99056;-70
2023/04/26 00:17:16;;;;;;;5.95;1.02;;;;;;;9.72;47.65;101022.69;4970786;28;98848;-69
2023/04/26 00:19:44;;;;;;;6.90;1.13;;;;;;;9.93;47.24;101015.03;4969952;28;96711;-70
2023/04/26 00:22:10;;;;;;;7.80;1.15;;;;;;;9.68;47.34;101015.78;4969162;28;96880;-70
2023/04/26 00:24:37;;;;;;;7.10;1.30;;;;;;;9.58;47.92;101010.72;4973562;28;98866;-71
2023/04/26 00:27:07;;;;;;;11.77;1.58;;;;;;;9.38;48.63;101015.72;4966345;28;98943;-70
2023/04/26 00:29:34;;;;;;;10.00;2.10;;;;;;;9.44;48.59;101015.53;4966242;28;96792;-69
2023/04/26 00:32:01;;;;;;;6.68;0.95;;;;;;;9.51;48.19;101018.88;4967866;28;97445;-71
2023/04/26 00:34:32;;;;;;;6.75;1.20;;;;;;;9.40;48.50;101016.50;4970016;28;101213;-70
2023/04/26 00:36:59;;;;;;;7.55;1.25;;;;;;;9.60;48.09;101018.63;4969553;28;99162;-69
2023/04/26 00:39:26;;;;;;;7.63;1.10;;;;;;;9.61;48.30;101017.72;4964472;28;96985;-70
2023/04/26 00:41:52;;;;;;;7.47;1.25;;;;;;;9.59;48.34;101025.66;4967724;28;97225;-71
2023/04/26 00:44:19;;;;;;;6.25;1.20;;;;;;;9.24;49.21;101015.19;4963568;28;97677;-71
2023/04/26 00:46:46;;;;;;;8.82;1.13;;;;;;;9.47;48.99;101019.84;4967869;28;99880;-69
2023/04/26 00:49:16;;;;;;;7.93;1.13;;;;;;;9.66;48.26;101012.31;4968770;28;97771;-69
2023/04/26 00:51:42;;;;;;;8.70;2.08;;;;;;;9.27;49.04;101012.47;4976869;28;96738;-69
2023/04/26 00:54:11;;;;;;;6.72;1.10;;;;;;;9.29;49.40;101015.06;4967689;28;98940;-70
2023/04/26 00:56:38;;;;;;;8.15;1.15;;;;;;;9.09;49.80;101005.91;4967692;28;98838;-70
2023/04/26 00:59:05;;;;;;;6.97;1.00;;;;;;;8.66;51.12;101026.31;4976054;28;97326;-71
2023/04/26 01:01:32;;;;;;;9.02;1.50;;;;;;;8.72;51.04;101027.03;4966977;28;96930;-72
2023/04/26 01:03:58;;;;;;;9.68;1.45;;;;;;;8.94;50.52;101019.44;4965678;28;99212;-69
2023/04/26 01:06:25;;;;;;;11.07;1.98;;;;;;;8.94;50.46;101022.09;4968436;28;98902;-70
2023/04/26 01:08:53;;;;;;;5.63;1.10;;;;;;;8.57;51.68;101031.75;4965869;28;96787;-70
2023/04/26 01:11:22;;;;;;;6.95;1.77;;;;;;;8.74;51.40;101026.97;4969800;28;96945;-69
2023/04/26 01:13:51;;;;;;;6.03;1.35;;;;;;;8.87;51.16;101020.50;4964701;28;99438;-70
2023/04/26 01:16:19;;;;;;;9.73;1.27;;;;;;;8.98;50.89;101029.03;4966478;28;98909;-69
2023/04/26 01:18:50;;;;;;;8.30;1.42;;;;;;;9.20;50.07;101026.72;4967947;28;97114;-70
2023/04/26 01:21:21;;;;;;;10.68;1.20;;;;;;;9.05;50.31;101033.25;4971024;28;96845;-70
2023/04/26 01:23:48;;;;;;;9.88;1.33;;;;;;;9.26;50.27;101029.19;4966571;28;98799;-71
2023/04/26 01:26:15;;;;;;;7.40;1.35;;;;;;;9.15;50.17;101034.75;4967297;28;102078;-70
2023/04/26 01:28:41;;;;;;;8.10;1.20;;;;;;;9.02;50.64;101035.09;4966939;28;97265;-70
2023/04/26 01:31:07;;;;;;;10.50;1.98;;;;;;;9.00;50.94;101032.47;4969033;28;96751;-70
2023/04/26 01:33:34;;;;;;;11.90;1.75;;;;;;;9.00;51.03;101039.50;4967315;28;99174;-69
2023/04/26 01:36:00;;;;;;;10.02;1.25;;;;;;;8.84;51.11;101043.44;4967073;28;98938;-70
2023/04/26 01:38:27;;;;;;;7.70;1.42;;;;;;;8.76;51.31;101046.25;4960742;28;96812;-70
2023/04/26 01:40:54;;;;;;;11.10;1.75;;;;;;;8.87;51.10;101053.88;4968767;28;97131;-70
2023/04/26 01:43:22;;;;;;;7.70;1.70;;;;;;;8.75;51.59;101050.66;4967390;28;99292;-70
2023/04/26 01:45:48;;;;;;;6.68;1.20;;;;;;;8.73;51.65;101049.81;4968423;28;98931;-70
2023/04/26 01:48:14;;;;;;;10.70;1.80;;;;;;;8.80;51.30;101047.88;4967855;28;96781;-69
2023/04/26 01:50:41;;;;;;;9.57;1.20;;;;;;;8.50;52.18;101052.09;4969143;28;96858;-69
2023/04/26 01:53:07;;;;;;;15.05;2.83;;;;;;;8.59;52.43;101056.31;4961763;28;99245;-69
2023/04/26 01:55:34;;;;;;;9.55;1.15;;;;;;;8.77;51.98;101053.25;4966779;28;98911;-70
2023/04/26 01:58:01;;;;;;;8.90;1.50;;;;;;;8.71;51.73;101054.25;4967893;28;96972;-68
2023/04/26 02:00:29;;;;;;;5.25;1.25;;;;;;;8.53;52.22;101059.09;4968316;28;96855;-69
2023/04/26 02:02:56;;;;;;;6.97;1.02;;;;;;;8.64;52.24;101057.06;4965075;28;98989;-69
2023/04/26 02:05:23;;;;;;;6.35;1.27;;;;;;;8.46;52.54;101052.22;4962901;28;96757;-69
2023/04/26 02:07:50;;;;;;;12.73;1.58;;;;;;;8.44;52.86;101048.75;4965613;28;96791;-69
2023/04/26 02:10:16;;;;;;;15.27;1.30;;;;;;;8.68;52.27;101050.81;4969023;28;100398;-68
2023/04/26 02:12:43;;;;;;;7.13;1.58;;;;;;;8.85;51.67;101051.31;4965497;28;99226;-70
2023/04/26 02:15:11;;;;;;;5.40;1.30;;;;;;;8.76;52.22;101052.38;4969718;28;99563;-69
2023/04/26 02:17:38;;;;;;;5.88;1.58;;;;;;;8.71;52.34;101048.13;4968122;28;96989;-69
2023/04/26 02:20:09;;;;;;;11.32;1.40;;;;;;;8.17;53.79;101058.94;4971240;28;96923;-69
2023/04/26 02:22:35;;;;;;;11.02;1.50;;;;;;;8.34;53.46;101058.59;4970374;28;98812;-69
2023/04/26 02:25:02;;;;;;;8.18;1.30;;;;;;;8.52;52.77;101049.44;4969394;28;99237;-70
2023/04/26 02:27:28;;;;;;;12.10;1.25;;;;;;;8.57;53.00;101056.34;4975519;28;96748;-69
2023/04/26 02:29:54;;;;;;;11.55;1.33;;;;;;;8.47;53.02;101053.97;4968804;28;96934;-69
2023/04/26 02:32:22;;;;;;;7.93;1.30;;;;;;;7.92;54.91;101050.66;4969330;28;99200;-69
2023/04/26 02:34:48;;;;;;;5.15;0.90;;;;;;;8.10;54.25;101048.56;4972326;28;99063;-70
2023/04/26 02:37:15;;;;;;;10.50;1.48;;;;;;;8.31;53.77;101050.78;4970885;28;96738;-69
2023/04/26 02:39:41;;;;;;;7.63;1.23;;;;;;;8.36;53.56;101048.91;4968381;28;96732;-70
2023/04/26 02:42:09;;;;;;;6.85;1.45;;;;;;;8.25;53.66;101051.75;4971031;28;98943;-69
2023/04/26 02:44:36;;;;;;;7.63;1.25;;;;;;;8.02;54.32;101043.44;4971200;28;98906;-69
2023/04/26 02:47:02;;;;;;;7.75;1.20;;;;;;;8.14;54.49;101047.59;4971852;28;98788;-69
2023/04/26 02:49:30;;;;;;;10.80;1.50;;;;;;;8.16;54.34;101038.75;4970150;28;99696;-69
2023/04/26 02:51:56;;;;;;;11.43;1.40;;;;;;;7.98;54.94;101052.31;4968267;28;98255;-70
2023/04/26 02:54:23;;;;;;;11.88;1.77;;;;;;;7.89;55.38;101049.84;4970629;28;99081;-69
2023/04/26 02:56:49;;;;;;;8.23;1.33;;;;;;;8.10;54.80;101044.16;4967467;28;97181;-69
2023/04/26 02:59:15;;;;;;;10.32;1.65;;;;;;;8.20;54.40;101045.72;4970789;28;97150;-69
2023/04/26 03:01:42;;;;;;;8.68;1.50;;;;;;;7.74;55.57;101048.41;4971575;28;100194;-70
2023/04/26 03:04:09;;;;;;;19.60;1.80;;;;;;;8.21;54.30;101051.81;4969175;28;97798;-69
2023/04/26 03:06:37;;;;;;;6.90;1.45;;;;;;;8.21;54.35;101057.94;4970430;28;96751;-69
2023/04/26 03:09:04;;;;;;;13.85;1.85;;;;;;;8.23;54.22;101050.03;4973355;28;96893;-69
2023/04/26 03:11:30;;;;;;;8.73;1.98;;;;;;;8.02;54.54;101056.59;4970519;28;99579;-69
2023/04/26 03:13:57;;;;;;;11.13;1.58;;;;;;;8.28;54.23;101053.41;4969410;28;99560;-70
2023/04/26 03:16:23;;;;;;;9.65;1.52;;;;;;;8.50;53.67;101053.88;4965401;28;96721;-70
2023/04/26 03:18:50;;;;;;;11.10;1.73;;;;;;;8.47;53.61;101049.53;4966520;28;97527;-69
2023/04/26 03:21:16;;;;;;;8.95;1.40;;;;;;;8.21;54.26;101051.81;4970453;28;97846;-69
2023/04/26 03:23:44;;;;;;;12.18;1.63;;;;;;;8.47;53.88;101060.06;4969890;28;98811;-69
2023/04/26 03:26:11;;;;;;;12.20;1.70;;;;;;;8.29;54.37;101058.66;4969020;28;96742;-69
2023/04/26 03:28:37;;;;;;;9.30;1.40;;;;;;;8.57;53.41;101055.47;4969816;28;97228;-69
2023/04/26 03:31:04;;;;;;;10.02;1.73;;;;;;;8.37;53.95;101058.53;4960463;28;99133;-69
2023/04/26 03:33:30;;;;;;;15.55;1.65;;;;;;;8.36;53.98;101064.69;4969655;28;99369;-69
2023/04/26 03:35:56;;;;;;;12.57;1.77;;;;;;;8.27;54.37;101062.25;4970399;28;96770;-70
2023/04/26 03:38:23;;;;;;;9.52;1.42;;;;;;;8.17;55.11;101065.94;4968666;28;97111;-69
2023/04/26 03:40:51;;;;;;;10.77;1.67;;;;;;;8.29;54.35;101071.81;4968961;28;99121;-69
2023/04/26 03:43:18;;;;;;;11.55;1.65;;;;;;;8.12;54.88;101070.44;4968576;28;98452;-69
2023/04/26 03:45:47;;;;;;;10.15;1.92;;;;;;;8.27;54.89;101067.50;4972833;28;96847;-70
2023/04/26 03:48:13;;;;;;;11.60;1.73;;;;;;;8.37;54.30;101075.22;4969521;28;96801;-69
2023/04/26 03:50:40;;;;;;;11.70;1.80;;;;;;;8.33;54.54;101067.41;4969383;28;101032;-69
2023/04/26 03:53:06;;;;;;;12.13;2.00;;;;;;;8.08;55.11;101069.63;4972237;28;97659;-70
2023/04/26 03:55:32;;;;;;;8.80;1.40;;;;;;;8.13;55.08;101065.16;4969748;28;96651;-70
2023/04/26 03:58:02;;;;;;;17.33;2.13;;;;;;;7.96;55.52;101076.00;4971702;28;97360;-69
2023/04/26 04:00:28;;;;;;;12.68;2.03;;;;;;;7.91;55.81;101071.75;4964525;28;101378;-69
2023/04/26 04:02:54;;;;;;;11.07;1.60;;;;;;;7.92;55.93;101076.09;4970017;28;98913;-70
2023/04/26 04:05:21;;;;;;;22.42;2.10;;;;;;;7.84;55.91;101078.00;4968896;28;96815;-68
2023/04/26 04:07:47;;;;;;;11.18;1.50;;;;;;;8.11;55.34;101077.47;4970318;28;97134;-70
2023/04/26 04:10:15;;;;;;;9.30;1.60;;;;;;;8.23;54.61;101071.97;4973695;28;99317;-70
2023/04/26 04:12:41;;;;;;;10.93;1.75;;;;;;;8.14;54.64;101082.66;4969359;28;99176;-69
2023/04/26 04:15:10;;;;;;;14.18;2.10;;;;;;;8.10;54.72;101083.63;4968114;28;97626;-69
2023/04/26 04:17:36;;;;;;;7.78;1.52;;;;;;;8.16;55.15;101080.88;4973458;28;96802;-69
2023/04/26 04:20:04;;;;;;;11.85;2.42;;;;;;;8.20;54.50;101086.97;4967720;28;99025;-69
2023/04/26 04:22:30;;;;;;;12.18;2.00;;;;;;;7.79;55.78;101080.75;4969759;28;98921;-69
2023/04/26 04:24:58;;;;;;;10.32;1.83;;;;;;;8.12;55.13;101081.84;4969218;28;96960;-70
2023/04/26 04:27:24;;;;;;;10.10;1.38;;;;;;;8.17;55.04;101087.88;4970628;28;96799;-70
2023/04/26 04:29:52;;;;;;;15.80;2.72;;;;;;;8.52;54.14;101086.31;4966160;28;99505;-70
2023/04/26 04:32:20;;;;;;;10.55;1.88;;;;;;;8.23;54.59;101092.16;4969008;28;98703;-68
2023/04/26 04:34:46;;;;;;;14.40;2.03;;;;;;;8.43;54.04;101091.78;4968633;28;96673;-69
2023/04/26 04:37:13;;;;;;;14.57;2.85;;;;;;;8.46;54.08;101097.00;4968081;28;98638;-70
2023/04/26 04:39:40;;;;;;;12.20;1.95;;;;;;;8.23;54.53;101097.41;4968688;28;98871;-70
2023/04/26 04:42:07;;;;;;;10.18;1.33;;;;;;;8.17;54.78;101097.53;4967954;28;98778;-69
2023/04/26 04:44:34;;;;;;;13.90;2.00;;;;;;;8.23;54.39;101095.66;4968463;28;97474;-70
2023/04/26 04:47:00;;;;;;;11.68;2.22;;;;;;;8.27;54.33;101101.75;4968565;28;96978;-70
2023/04/26 04:49:30;;;;;;;10.25;2.47;;;;;;;8.29;54.50;101100.78;4968489;28;99119;-70
2023/04/26 04:51:57;;;;;;;10.15;1.85;;;;;;;8.40;54.26;101114.63;4969190;28;98981;-70
2023/04/26 04:54:23;;;;;;;7.80;1.85;;;;;;;8.79;52.92;101104.16;4971738;28;96913;-70
2023/04/26 04:56:50;;;;;;;14.38;2.97;;;;;;;8.35;54.18;101111.22;4967450;28;96854;-70
2023/04/26 04:59:16;;;;;;;9.98;2.10;;;;;;;8.68;53.47;101116.69;4963203;28;98916;-70
2023/04/26 05:01:42;;;;;;;12.07;2.00;;;;;;;8.54;53.47;101102.94;4963976;28;99461;-70
2023/04/26 05:04:09;;;;;;;12.43;2.05;;;;;;;8.69;53.24;101116.66;4965509;28;96775;-69
2023/04/26 05:06:37;;;;;;;14.60;2.17;;;;;;;8.77;53.21;101120.00;4966680;28;96731;-69
2023/04/26 05:09:04;;;;;;;10.93;1.80;;;;;;;9.25;52.09;101109.22;4970195;28;99214;-70
2023/04/26 05:11:31;;;;;;;18.30;2.50;;;;;;;9.03;52.05;101121.16;4967468;28;99171;-69
2023/04/26 05:13:57;;;;;;;15.55;2.30;;;;;;;9.35;51.45;101121.25;4966905;28;97702;-69
2023/04/26 05:16:23;;;;;;;19.00;2.47;;;;;;;9.35;51.33;101130.94;4968457;28;96829;-69
2023/04/26 05:18:50;;;;;;;9.93;2.03;;;;;;;9.24;51.42;101122.44;4967155;28;97749;-69
2023/04/26 05:21:16;;;;;;;9.35;2.25;;;;;;;9.54;51.04;101124.31;4961231;28;98862;-69
2023/04/26 05:23:44;;;;;;;9.63;1.85;;;;;;;9.40;51.23;101136.97;4967177;28;97118;-69
2023/04/26 05:26:14;;;;;;;7.20;1.60;;;;;;;9.57;50.76;101135.66;4964740;28;96893;-70
2023/04/26 05:28:41;;;;;;;11.57;2.00;;;;;;;9.40;51.01;101132.56;4964820;28;99543;-70
2023/04/26 05:31:08;;;;;;;12.18;2.00;;;;;;;9.15;51.81;101144.59;4956365;28;100631;-71
2023/04/26 05:33:35;;;;;;;13.50;2.15;;;;;;;9.41;51.25;101142.22;4967077;28;96887;-69
2023/04/26 05:36:01;;;;;;;14.50;2.40;;;;;;;9.71;50.50;101139.72;4966950;28;96904;-71
2023/04/26 05:38:29;;;;;;;14.80;2.33;;;;;;;9.67;50.53;101143.34;4972816;28;99669;-69
2023/04/26 05:40:57;;;;;;;7.03;2.05;;;;;;;9.53;50.63;101146.31;4964038;28;98808;-71
2023/04/26 05:43:23;;;;;;;19.17;2.88;;;;;;;9.68;50.07;101142.44;4967976;28;96716;-70
2023/04/26 05:45:50;;;;;;;14.88;2.33;;;;;;;9.93;49.81;101141.75;4965398;28;97109;-70
2023/04/26 05:48:17;;;;;;;12.35;3.05;;;;;;;9.93;49.74;101152.31;4963004;28;99232;-69
2023/04/26 05:50:43;;;;;;;13.05;1.95;;;;;;;9.76;49.78;101148.38;4970891;28;99052;-70
2023/04/26 05:53:09;;;;;;;12.55;2.17;;;;;;;10.14;49.60;101155.28;4967187;28;97100;-70
2023/04/26 05:55:36;;;;;;;13.07;2.85;;;;;;;10.20;48.92;101145.47;4970613;28;97000;-70
2023/04/26 05:58:05;;;;;;;14.40;2.05;;;;;;;10.07;49.30;101153.72;4975188;28;99125;-70
2023/04/26 06:00:31;;;;;;;21.38;2.53;;;;;;;9.51;50.96;101156.94;4968666;28;99199;-70
2023/04/26 06:02:58;;;;;;;11.60;2.10;;;;;;;10.06;49.84;101152.84;4970936;28;97250;-69
2023/04/26 06:05:24;;;;;;;9.85;3.28;;;;;;;10.40;48.71;101152.81;4973163;28;97062;-70
2023/04/26 06:07:51;;;;;;;13.00;2.10;;;;;;;10.37;48.40;101163.50;4976454;28;99002;-70
2023/04/26 06:10:20;;;;;;;8.65;2.25;;;;;;;10.39;48.21;101159.00;4968635;28;98962;-71
2023/04/26 06:12:46;;;;;;;11.50;2.08;;;;;;;10.93;47.26;101175.03;4976741;28;97842;-70
2023/04/26 06:15:14;;;;;;;8.27;2.00;;;;;;;11.12;46.51;101159.47;4968859;28;96799;-70
2023/04/26 06:17:44;;;;;;;9.82;1.77;;;;;;;11.07;46.83;101169.34;4968290;28;99214;-69
2023/04/26 06:20:10;;;;;;;11.68;2.25;;;;;;;10.62;47.38;101164.53;4969849;28;99407;-69
2023/04/26 06:22:37;;;;;;;11.40;2.10;;;;;;;11.22;46.33;101160.94;4968663;28;96785;-70
2023/04/26 06:25:05;;;;;;;15.10;2.70;;;;;;;11.56;45.62;101164.22;4967219;28;96934;-69
2023/04/26 06:27:32;;;;;;;7.38;2.13;;;;;;;11.62;45.12;101155.19;4964899;28;97837;-69
2023/04/26 06:29:58;;;;;;;9.23;2.20;;;;;;;11.00;46.25;101170.44;4968914;28;99094;-70
2023/04/26 06:32:26;;;;;;;15.38;2.80;;;;;;;11.00;46.82;101173.09;4969349;28;97144;-71
2023/04/26 06:34:53;;;;;;;11.57;2.55;;;;;;;11.05;46.31;101168.50;4978441;28;96875;-70
2023/04/26 06:37:22;;;;;;;7.45;1.90;;;;;;;11.05;46.56;101172.03;4963226;28;99267;-70
2023/04/26 06:39:48;;;;;;;14.18;2.65;;;;;;;11.48;45.41;101174.19;4967633;28;97802;-69
2023/04/26 06:42:15;;;;;;;13.05;2.00;;;;;;;11.58;45.23;101170.31;4967224;28;96837;-69
2023/04/26 06:44:41;;;;;;;13.55;1.98;;;;;;;11.38;45.53;101175.41;4973263;28;96853;-69
2023/04/26 06:47:09;;;;;;;17.02;2.30;;;;;;;11.65;45.02;101172.78;4970748;28;99112;-71
2023/04/26 06:49:37;;;;;;;12.55;2.33;;;;;;;12.16;43.76;101171.00;4969306;28;99375;-69
2023/04/26 06:52:28;;;;;;;8.60;1.73;;;;;;;12.02;43.70;101175.94;4968092;28;96757;-73
2023/04/26 06:54:55;;;;;;;11.52;1.75;;;;;;;11.60;44.37;101175.56;4971707;28;97333;-69
2023/04/26 06:57:21;;;;;;;10.82;1.92;;;;;;;11.87;44.04;101176.47;4970269;28;98863;-71
2023/04/26 06:59:47;;;;;;;10.75;2.28;;;;;;;12.27;43.67;101174.13;4971174;28;99164;-70
2023/04/26 07:02:14;;;;;;;12.23;2.72;;;;;;;12.04;43.76;101175.88;4970646;28;96717;-70
2023/04/26 07:04:42;;;;;;;10.50;2.83;;;;;;;12.01;43.56;101168.06;4979162;28;96789;-71
2023/04/26 07:07:09;;;;;;;15.10;2.03;;;;;;;11.85;44.46;101173.00;4971095;28;98948;-70
2023/04/26 07:09:35;;;;;;;13.75;2.28;;;;;;;12.32;43.68;101174.88;4970758;28;99097;-70
2023/04/26 07:12:01;;;;;;;14.00;2.20;;;;;;;12.53;42.71;101175.00;4978409;28;97646;-69
2023/04/26 07:14:28;;;;;;;13.00;2.30;;;;;;;13.10;41.62;101179.88;4972318;28;97430;-70
2023/04/26 07:16:54;;;;;;;16.23;2.30;;;;;;;13.12;41.24;101178.94;4978315;28;99327;-70
2023/04/26 07:19:21;;;;;;;15.75;1.92;;;;;;;12.58;42.12;101173.06;4971540;28;101461;-71
2023/04/26 07:21:51;;;;;;;16.13;2.92;;;;;;;12.23;42.70;101175.19;4975473;28;96742;-71
2023/04/26 07:24:24;;;;;;;13.85;2.45;;;;;;;12.40;42.22;101181.69;4969599;28;96834;-72
2023/04/26 07:26:51;;;;;;;9.88;2.00;;;;;;;13.16;41.03;101177.91;4977572;28;99632;-71
2023/04/26 07:29:18;;;;;;;6.65;1.70;;;;;;;13.54;39.85;101180.78;4971900;28;98772;-71
2023/04/26 07:31:45;;;;;;;9.80;1.80;;;;;;;12.94;40.60;101184.03;4981994;28;96771;-70
2023/04/26 07:34:12;;;;;;;10.57;1.95;;;;;;;13.36;40.53;101181.53;4972683;28;96974;-71
2023/04/26 07:36:38;;;;;;;9.20;2.78;;;;;;;13.86;39.50;101182.97;4966171;28;101980;-70
2023/04/26 07:39:08;;;;;;;12.55;2.05;;;;;;;13.82;38.96;101183.19;4972085;28;97904;-69
2023/04/26 07:41:34;;;;;;;15.30;2.53;;;;;;;13.67;39.35;101181.16;4967430;28;97414;-70
2023/04/26 07:44:01;;;;;;;10.23;2.20;;;;;;;13.57;39.43;101196.63;4970677;28;96916;-70
2023/04/26 07:46:27;;;;;;;10.65;2.63;;;;;;;13.46;39.37;101188.19;4970106;28;101627;-71
2023/04/26 07:48:54;;;;;;;14.32;2.20;;;;;;;13.79;39.07;101192.13;4972720;28;99161;-70
2023/04/26 07:51:20;;;;;;;13.70;1.90;;;;;;;13.43;38.49;101183.03;4982261;28;97384;-70
2023/04/26 07:53:47;;;;;;;9.95;2.22;;;;;;;13.49;39.09;101193.41;4972566;28;96829;-70
2023/04/26 07:56:15;;;;;;;13.45;2.72;;;;;;;13.34;39.58;101196.66;4970159;28;101010;-70
2023/04/26 07:58:42;;;;;;;13.40;2.22;;;;;;;13.39;39.29;101198.19;4972062;28;102340;-71
2023/04/26 08:01:10;;;;;;;7.80;2.17;;;;;;;13.31;39.47;101199.44;4971735;28;96890;-73
2023/04/26 08:03:36;;;;;;;11.98;1.83;;;;;;;13.46;39.53;101194.38;4962001;28;100693;-70
2023/04/26 08:06:03;;;;;;;12.65;1.70;;;;;;;13.88;38.83;101196.19;4960478;28;99124;-72
2023/04/26 08:08:32;;;;;;;13.23;2.10;;;;;;;13.99;38.09;101209.88;4966476;28;98976;-71
2023/04/26 08:10:58;;;;;;;7.95;2.15;;;;;;;14.11;37.77;101203.22;4962985;28;97261;-72
2023/04/26 08:13:26;;;;;;;16.23;2.25;;;;;;;14.06;37.44;101205.19;4962988;28;96792;-71
2023/04/26 08:15:52;;;;;;;13.48;2.00;;;;;;;13.58;38.53;101211.63;4966120;28;99256;-70
2023/04/26 08:18:19;;;;;;;11.52;1.92;;;;;;;13.32;39.13;101219.75;4962901;28;97778;-71
2023/04/26 08:20:45;;;;;;;12.25;2.13;;;;;;;13.56;38.84;101202.84;4967891;28;96823;-71
2023/04/26 08:23:13;;;;;;;11.82;1.88;;;;;;;13.62;38.57;101207.03;4970975;28;97127;-71
2023/04/26 08:25:39;;;;;;;6.82;1.88;;;;;;;14.00;37.91;101198.34;4966491;28;98944;-71
2023/04/26 08:28:06;;;;;;;6.82;1.20;;;;;;;14.02;36.89;101192.97;4973152;28;98727;-71
2023/04/26 08:30:36;;;;;;;12.50;1.88;;;;;;;13.50;37.74;101195.13;4965647;28;97294;-71
2023/04/26 08:33:03;;;;;;;10.73;1.75;;;;;;;13.35;38.74;101209.88;4965071;28;96806;-70
2023/04/26 08:35:29;;;;;;;11.52;1.80;;;;;;;13.13;40.80;101223.09;4967373;28;100324;-71
2023/04/26 08:37:56;;;;;;;8.35;1.75;;;;;;;12.48;42.22;101222.00;4967012;28;101559;-71
2023/04/26 08:40:24;;;;;;;10.18;1.75;;;;;;;12.66;42.26;101221.34;4967794;28;96910;-71
2023/04/26 08:42:52;;;;;;;5.57;1.77;;;;;;;12.59;42.21;101218.06;4965463;28;96801;-71
2023/04/26 08:45:19;;;;;;;9.77;1.80;;;;;;;12.60;42.34;101226.88;4963902;28;99900;-70
2023/04/26 08:47:49;;;;;;;6.18;1.58;;;;;;;12.48;43.26;101214.03;4966720;28;98737;-71
2023/04/26 08:50:18;;;;;;;7.18;1.45;;;;;;;13.19;41.62;101215.84;4968729;28;96761;-71
2023/04/26 08:52:47;;;;;;;7.07;1.30;;;;;;;13.35;41.04;101212.53;4964247;28;98334;-72
2023/04/26 08:55:15;;;;;;;10.35;2.00;;;;;;;14.42;39.67;101208.97;4967491;28;99072;-70
2023/04/26 08:57:42;;;;;;;6.63;1.70;;;;;;;15.07;37.95;101215.75;4960861;28;98823;-70
2023/04/26 09:00:11;;;;;;;6.93;2.13;;;;;;;15.40;36.26;101211.50;4961794;28;97234;-70
2023/04/26 09:02:40;;;;;;;7.57;1.80;;;;;;;15.36;35.24;101219.72;4965950;28;97368;-71
2023/04/26 09:05:09;;;;;;;8.75;1.95;;;;;;;15.04;34.69;101213.22;4964155;28;97749;-72
2023/04/26 09:07:40;;;;;;;9.77;1.75;;;;;;;14.50;35.55;101219.25;4966760;28;98956;-70
2023/04/26 09:10:07;;;;;;;6.85;1.20;;;;;;;13.70;36.59;101213.78;4967969;28;100031;-70
2023/04/26 09:12:34;;;;;;;9.60;1.40;;;;;;;13.37;38.13;101215.13;4968436;28;97777;-71
2023/04/26 09:15:01;;;;;;;10.50;1.40;;;;;;;13.42;38.21;101219.31;4965972;28;99428;-71
2023/04/26 09:17:29;;;;;;;10.85;1.20;;;;;;;13.44;37.03;101213.97;4963595;28;99183;-72
2023/04/26 09:19:56;;;;;;;6.30;1.35;;;;;;;13.74;36.33;101218.03;4969509;28;96731;-71
2023/04/26 09:22:31;;;;;;;7.90;1.45;;;;;;;14.35;36.07;101208.34;4965696;28;97197;-71
2023/04/26 09:24:58;;;;;;;2.28;0.82;;;;;;;14.12;35.55;101207.56;4974125;28;98985;-71
2023/04/26 09:27:33;;;;;;;6.82;1.15;;;;;;;14.10;36.09;101206.81;4965573;28;99318;-71
2023/04/26 09:30:04;;;;;;;6.53;1.52;;;;;;;14.28;36.36;101206.00;4965917;28;97042;-71
2023/04/26 09:32:44;;;;;;;4.22;1.13;;;;;;;14.60;35.51;101216.13;4965166;28;97046;-71
2023/04/26 09:35:21;;;;;;;8.10;1.17;;;;;;;14.99;33.94;101215.22;4961393;28;98157;-71
2023/04/26 09:37:53;;;;;;;9.48;1.45;;;;;;;14.73;34.67;101213.75;4965091;28;98865;-71
2023/04/26 09:40:20;;;;;;;15.65;1.55;;;;;;;14.94;33.66;101211.94;4963223;28;96865;-71
2023/04/26 09:42:47;;;;;;;8.38;1.08;;;;;;;14.99;33.47;101208.13;4971392;28;96812;-71
2023/04/26 09:45:16;;;;;;;5.45;1.30;;;;;;;15.27;33.00;101215.69;4962189;28;99121;-71
2023/04/26 09:47:43;;;;;;;7.07;1.35;;;;;;;15.17;32.75;101211.72;4969010;28;98797;-71
2023/04/26 09:50:09;;;;;;;7.43;1.50;;;;;;;15.17;33.07;101209.03;4963592;28;96888;-70
2023/04/26 09:52:43;;;;;;;5.53;1.45;;;;;;;14.88;32.30;101207.75;4963382;28;97088;-71
2023/04/26 09:55:11;;;;;;;7.88;0.98;;;;;;;14.40;32.69;101204.63;4959876;28;99352;-72
2023/04/26 09:57:43;;;;;;;5.53;1.10;;;;;;;14.45;33.15;101208.81;4967012;28;98610;-71
2023/04/26 10:00:11;;;;;;;3.33;0.90;;;;;;;14.58;33.28;101220.63;4965248;28;96830;-71
2023/04/26 10:02:38;;;;;;;5.05;1.25;;;;;;;14.54;33.30;101211.06;4962958;28;97818;-70
2023/04/26 10:05:06;;;;;;;5.35;1.35;;;;;;;14.63;32.65;101212.47;4962319;28;98000;-70
2023/04/26 10:07:33;;;;;;;6.45;1.40;;;;;;;15.11;31.82;101210.19;4972828;28;98802;-70
2023/04/26 10:10:00;;;;;;;6.07;1.35;;;;;;;15.48;31.05;101206.66;4965476;28;97142;-72
2023/04/26 10:12:29;;;;;;;6.85;1.27;;;;;;;15.43;31.03;101215.78;4967641;28;97774;-71
2023/04/26 10:14:56;;;;;;;5.60;1.17;;;;;;;14.93;31.75;101207.53;4962345;28;101414;-71
2023/04/26 10:17:23;;;;;;;6.80;1.13;;;;;;;14.31;31.38;101209.38;4965189;28;99159;-71
2023/04/26 10:19:53;;;;;;;4.20;0.93;;;;;;;14.41;30.98;101214.34;4963757;28;96792;-70
2023/04/26 10:22:24;;;;;;;5.90;1.42;;;;;;;14.87;30.68;101210.47;4967879;28;96948;-70
2023/04/26 10:24:51;;;;;;;7.13;1.58;;;;;;;14.96;30.88;101210.06;4966164;28;98894;-71
2023/04/26 10:27:51;;;;;;;3.90;1.50;;;;;;;14.76;31.24;101213.63;4967535;28;98913;-70
2023/04/26 10:30:20;;;;;;;8.25;1.63;;;;;;;14.87;31.64;101215.81;4964394;28;97048;-71
2023/04/26 10:33:20;;;;;;;3.92;1.75;;;;;;;14.34;32.24;101227.88;4964565;28;96997;-70
2023/04/26 10:36:05;;;;;;;6.80;1.70;;;;;;;14.41;32.69;101233.81;4965549;28;98989;-70
2023/04/26 10:38:32;;;;;;;7.45;1.50;;;;;;;14.39;32.91;101229.47;4974871;28;101407;-71
2023/04/26 10:41:44;;;;;;;8.63;1.73;;;;;;;13.94;34.29;101233.13;4974517;28;97283;-69
2023/04/26 10:44:41;;;;;;;9.00;1.75;;;;;;;14.21;34.71;101225.81;4973613;28;96811;-70
2023/04/26 10:47:20;;;;;;;5.97;2.10;;;;;;;14.64;34.20;101224.81;4969034;28;98888;-70
2023/04/26 10:49:47;;;;;;;6.70;2.10;;;;;;;15.01;33.29;101216.91;4970815;28;98927;-71
2023/04/26 10:52:15;;;;;;;10.88;2.03;;;;;;;15.97;32.30;101222.03;4966122;28;99904;-71
2023/04/26 10:54:46;;;;;;;10.38;1.80;;;;;;;16.01;30.81;101219.16;4972355;28;97399;-71
2023/04/26 10:57:14;;;;;;;10.07;1.50;;;;;;;15.23;30.93;101229.22;4970186;28;99248;-71
2023/04/26 11:00:19;;;;;;;5.40;1.70;;;;;;;14.36;31.94;101231.34;4970152;28;98848;-70
2023/04/26 11:03:14;;;;;;;6.97;1.48;;;;;;;14.61;31.97;101222.31;4966996;28;97128;-70
2023/04/26 11:05:54;;;;;;;9.25;2.08;;;;;;;15.20;31.37;101232.88;4932207;28;97305;-72
2023/04/26 11:08:24;;;;;;;6.78;1.52;;;;;;;14.67;32.05;101224.69;4962686;28;98992;-71
2023/04/26 11:10:56;;;;;;;14.65;1.88;;;;;;;14.64;32.19;101225.66;4969151;28;98930;-71
2023/04/26 11:13:23;;;;;;;10.27;2.20;;;;;;;14.56;32.33;101226.97;4973713;28;97711;-71
2023/04/26 11:15:54;;;;;;;7.47;1.70;;;;;;;14.53;31.89;101224.44;4970603;28;96851;-71
2023/04/26 11:18:21;;;;;;;6.63;1.70;;;;;;;14.86;32.20;101222.06;4963524;28;98921;-71
2023/04/26 11:20:48;;;;;;;14.43;2.00;;;;;;;15.07;31.06;101219.28;4964445;28;98751;-70
2023/04/26 11:23:15;;;;;;;8.95;1.67;;;;;;;15.33;30.72;101220.72;4968416;28;96782;-70
2023/04/26 11:25:41;;;;;;;8.77;1.75;;;;;;;15.09;30.40;101219.22;4969162;28;97239;-70
2023/04/26 11:28:07;;;;;;;7.60;2.00;;;;;;;15.41;29.50;101223.00;4967275;28;99047;-72